Latest Weather Observations for Brisbane Airport

IDQ60901

Issued at 2:01 pm EST Wednesday 27 May 2015 (issued every 10 minutes, with the page automatically refreshed every 10 minutes)

About weather observations | Map of Brisbane area stations | Latest observations for Brisbane area | Other Formats
Station Details ID: 040842 Name: BRISBANE AERO Lat: -27.39 Lon: 153.13 Height: 4.51 m
Data from the previous 72 hours. | See also: Recent months at Brisbane Airport
Date/Time
EST
Tmp

°C
App
Tmp
°C
Dew
Point
°C
Rel
Hum
%
Delta-T

°C
Wind Press
QNH
hPa
Press
MSL
hPa
Rain
since
9 am
mm
Dir
 
Spd
km/h
Gust
km/h
Spd
kts
Gust
kts
27/02:00pm 21.2 20.3 14.9 67 3.7 E 13 17 7 9 1022.1 - 0.0
27/01:30pm 20.8 19.9 14.8 68 3.5 ESE 13 17 7 9 1022.3 - 0.0
27/01:00pm 20.5 20.3 15.6 73 2.9 ESE 11 17 6 9 1022.6 - 0.0
27/12:30pm 20.3 20.2 15.9 76 2.6 E 11 19 6 10 1023.0 - 0.0
27/12:00pm 20.9 20.3 14.5 67 3.7 ESE 11 17 6 9 1023.7 1023.6 0.0
27/11:30am 20.9 20.5 14.2 65 3.9 SSE 9 17 5 9 1024.3 - 0.0
27/11:00am 21.3 21.1 14.6 65 3.9 S 9 13 5 7 1024.6 - 0.0
27/10:30am 20.9 19.8 14.4 66 3.8 S 13 19 7 10 1025.1 - 0.0
27/10:00am 19.9 18.6 13.6 67 3.6 S 13 17 7 9 1025.3 - 0.0
27/09:30am 19.1 16.5 13.2 68 3.3 SSW 19 24 10 13 1025.5 - 0.0
27/09:00am 18.0 15.3 13.0 72 2.8 SSW 19 22 10 12 1025.3 1025.2 0.0
27/08:30am 16.9 14.6 13.1 78 2.1 SSW 17 22 9 12 1025.2 - 0.0
27/08:00am 16.1 13.6 13.4 84 1.5 SSW 19 24 10 13 1025.1 - 0.0
27/07:30am 15.1 13.2 12.9 87 1.2 SSW 15 19 8 10 1024.7 - 0.0
27/07:00am 14.2 12.1 12.5 89 0.9 SSW 15 19 8 10 1024.7 - 0.0
27/06:30am 14.3 11.8 12.3 88 1.1 SSW 17 20 9 11 1024.4 - 0.0
27/05:30am 14.0 11.9 12.3 89 0.9 SSW 15 19 8 10 1023.8 - 0.0
27/05:00am 13.9 11.9 12.6 92 0.7 SSW 15 19 8 10 1023.6 - 0.0
27/04:30am 13.6 11.5 12.5 93 0.6 SSW 15 19 8 10 1023.3 - 0.0
27/04:00am 13.5 11.5 12.8 95 0.4 SSW 15 17 8 9 1023.5 - 0.0
27/03:30am 13.9 12.4 13.2 96 0.4 SSW 13 17 7 9 1023.6 - 0.0
27/03:00am 13.8 12.0 13.3 97 0.3 SSW 15 17 8 9 1024.0 1023.9 0.0
27/02:30am 14.9 13.4 14.2 96 0.4 SSW 15 19 8 10 1024.2 - 0.0
27/02:00am 14.7 13.5 14.0 96 0.4 SSW 13 15 7 8 1024.1 - 0.0
27/01:30am 15.2 14.8 14.1 93 0.6 S 9 11 5 6 1023.9 - 0.0
27/01:00am 15.9 15.8 14.9 94 0.6 SSW 9 9 5 5 1024.3 - 0.0
27/12:30am 15.7 15.4 14.3 91 0.8 SSW 9 9 5 5 1024.5 - 0.0
27/12:00am 16.0 16.1 14.4 90 0.9 S 7 9 4 5 1024.5 1024.4 0.0
 
Date/Time
EST
Tmp

°C
App
Tmp
°C
Dew
Point
°C
Rel
Hum
%
Delta-T

°C
Wind Press
QNH
hPa
Press
MSL
hPa
Rain
since
9 am
mm
Dir
 
Spd
km/h
Gust
km/h
Spd
kts
Gust
kts
26/11:30pm 16.8 16.9 14.5 86 1.3 S 7 9 4 5 1024.8 - 0.0
26/11:00pm 16.2 16.5 15.0 93 0.7 SSW 7 9 4 5 1025.2 - 0.0
26/10:30pm 16.7 17.2 15.5 93 0.7 S 7 9 4 5 1025.5 - 0.0
26/10:00pm 17.0 18.8 15.6 91 0.8 CALM 0 0 0 0 1025.6 - 0.0
26/09:30pm 17.3 17.9 15.9 91 0.8 S 7 9 4 5 1025.4 - 0.0
26/09:00pm 17.4 19.5 16.2 93 0.7 CALM 0 0 0 0 1025.5 1025.4 0.0
26/08:30pm 17.8 18.8 16.3 91 0.9 E 6 9 3 5 1025.8 - 0.0
26/08:00pm 18.1 20.3 16.6 91 0.9 CALM 0 4 0 2 1025.9 - 0.0
26/07:30pm 18.4 19.9 16.6 89 1.1 E 4 7 2 4 1025.8 - 0.0
26/07:00pm 18.6 19.0 16.4 87 1.3 E 9 11 5 6 1025.5 - 0.0
26/06:30pm 19.1 19.5 15.2 78 2.3 SE 7 11 4 6 1025.4 - 0.0
26/05:30pm 19.4 19.4 15.1 76 2.5 SE 9 13 5 7 1024.7 - 0.0
26/05:00pm 19.7 19.6 14.9 74 2.8 ESE 9 13 5 7 1024.6 - 0.0
26/04:30pm 20.3 20.1 14.6 70 3.3 SE 9 13 5 7 1024.6 - 0.0
26/04:00pm 20.3 19.3 14.6 70 3.3 ESE 13 17 7 9 1024.2 - 0.0
26/03:30pm 20.7 19.9 15.1 70 3.3 ESE 13 19 7 10 1024.2 - 0.0
26/03:00pm 20.7 20.0 14.3 66 3.7 ESE 11 15 6 8 1024.3 1024.2 0.0
26/02:30pm 20.9 20.3 14.5 67 3.7 SE 11 15 6 8 1024.5 - 0.0
26/02:00pm 20.9 20.5 14.2 65 3.9 ESE 9 15 5 8 1025.0 - 0.0
26/01:30pm 21.4 20.7 14.2 63 4.2 E 11 13 6 7 1025.4 - 0.0
26/01:00pm 21.7 20.9 13.9 61 4.5 ESE 11 15 6 8 1025.5 - 0.0
26/12:30pm 21.4 20.5 13.8 62 4.4 ESE 11 19 6 10 1025.8 - 0.0
26/12:00pm 22.0 21.5 13.9 60 4.7 SSE 9 15 5 8 1026.9 1026.8 0.0
26/11:30am 21.1 20.1 13.4 61 4.4 SSE 11 19 6 10 1027.2 - 0.0
26/11:00am 21.4 19.6 13.3 60 4.6 S 15 20 8 11 1027.7 - 0.0
26/10:30am 20.6 19.1 13.0 61 4.3 S 13 19 7 10 1027.7 - 0.0
26/10:00am 19.2 17.0 12.1 63 3.9 SSW 15 20 8 11 1028.2 - 0.0
26/09:30am 18.1 15.8 11.9 67 3.4 SSW 15 22 8 12 1028.2 - 0.0
26/09:00am 17.3 14.4 12.4 73 2.7 SSW 19 24 10 13 1028.4 1028.3 0.0
26/08:30am 15.7 12.6 12.2 80 1.9 SSW 20 26 11 14 1028.5 - 0.0
26/08:00am 14.9 11.9 12.1 83 1.5 SSW 19 24 10 13 1028.6 - 0.0
26/07:30am 14.1 11.5 11.9 86 1.2 SSW 17 24 9 13 1028.4 - 0.0
26/07:00am 13.0 10.2 11.3 89 0.9 SSW 17 22 9 12 1028.5 - 0.0
26/06:30am 13.0 10.6 11.3 89 0.9 SSW 15 19 8 10 1028.1 - 0.0
26/06:00am 13.0 10.6 11.3 89 0.9 SSW 15 17 8 9 1028.0 1027.9 0.0
26/05:30am 13.2 10.8 11.3 88 1.0 SSW 15 19 8 10 1027.7 - 0.0
26/05:00am 12.6 10.5 11.3 92 0.7 SSW 13 17 7 9 1027.7 - 0.0
26/04:30am 12.8 10.4 11.3 91 0.8 SSW 15 19 8 10 1027.6 - 0.0
26/04:00am 13.7 11.0 11.6 87 1.1 SSW 17 19 9 10 1027.6 - 0.0
26/03:30am 13.3 11.3 11.6 89 0.9 SSW 13 17 7 9 1027.8 - 0.0
26/03:00am 14.2 12.0 12.0 87 1.2 SSW 15 19 8 10 1027.9 1027.8 0.0
26/02:30am 13.6 11.3 11.9 89 0.9 SSW 15 17 8 9 1028.1 - 0.0
26/02:00am 13.3 11.0 11.8 91 0.8 SSW 15 17 8 9 1027.8 - 0.0
26/01:30am 13.7 11.8 11.8 88 1.0 SSW 13 15 7 8 1028.0 - 0.0
26/01:00am 15.0 13.2 12.2 83 1.5 S 13 17 7 9 1028.2 - 0.0
26/12:30am 14.2 12.4 12.2 88 1.1 SSW 13 17 7 9 1028.3 - 0.0
26/12:00am 14.7 13.3 12.3 85 1.3 SSW 11 15 6 8 1028.5 1028.4 0.0
 
Date/Time
EST
Tmp

°C
App
Tmp
°C
Dew
Point
°C
Rel
Hum
%
Delta-T

°C
Wind Press
QNH
hPa
Press
MSL
hPa
Rain
since
9 am
mm
Dir
 
Spd
km/h
Gust
km/h
Spd
kts
Gust
kts
25/11:30pm 14.7 13.0 12.3 85 1.3 SSW 13 17 7 9 1028.9 - 0.0
25/11:00pm 15.0 13.2 12.2 83 1.5 SSW 13 17 7 9 1029.2 - 0.0
25/10:30pm 15.2 13.7 11.8 80 1.8 SSW 11 15 6 8 1029.0 - 0.0
25/10:00pm 15.5 14.8 12.0 79 1.9 SSW 7 11 4 6 1029.3 - 0.0
25/09:30pm 15.5 14.4 11.8 78 2.0 S 9 11 5 6 1029.6 - 0.0
25/09:00pm 16.8 15.7 12.0 73 2.6 S 9 13 5 7 1029.5 1029.4 0.0
25/08:30pm 17.0 15.9 12.0 72 2.7 S 9 13 5 7 1029.4 - 0.0
25/08:00pm 16.9 16.4 12.5 75 2.4 S 7 11 4 6 1029.4 - 0.0
25/07:30pm 17.5 17.0 12.6 73 2.7 S 7 11 4 6 1029.1 - 0.0
25/07:00pm 18.1 17.6 12.7 70 3.0 SSE 7 9 4 5 1028.7 - 0.0
25/06:30pm 18.6 18.1 12.7 68 3.3 SSE 7 11 4 6 1028.6 - 0.0
25/06:00pm 18.9 18.1 12.8 67 3.4 SE 9 13 5 7 1028.4 1028.3 0.0
25/05:30pm 19.8 18.8 12.4 62 4.1 SE 9 17 5 9 1028.4 - 0.0
25/05:00pm 19.9 18.9 12.4 62 4.2 ESE 9 17 5 9 1028.6 - 0.0
25/04:30pm 20.3 18.5 12.0 59 4.6 SE 13 19 7 10 1028.5 - 0.0
25/04:00pm 20.8 19.0 12.2 58 4.8 ESE 13 20 7 11 1028.0 - 0.0
25/03:30pm 21.2 19.1 12.3 57 5.0 SE 15 26 8 14 1027.6 - 0.0
25/03:00pm 21.1 19.1 11.5 54 5.3 SE 13 28 7 15 1027.7 1027.6 0.0
25/02:30pm 21.1 18.6 12.4 57 4.9 ESE 17 28 9 15 1027.8 - 0.0
25/02:00pm 21.6 18.6 12.1 54 5.3 ESE 19 30 10 16 1027.8 - 0.0
25/01:30pm 21.8 19.4 12.6 56 5.2 ESE 17 26 9 14 1028.2 - 0.0
25/01:00pm 21.9 19.6 13.1 57 5.0 ESE 17 26 9 14 1028.4 - 0.0
25/12:30pm 21.8 18.9 12.2 54 5.4 ESE 19 28 10 15 1028.8 - 0.0
25/12:00pm 22.0 19.7 11.8 52 5.7 ESE 15 26 8 14 1029.3 1029.2 0.0
25/11:30am 22.1 20.5 12.7 55 5.4 SE 13 26 7 14 1029.8 - 0.0
25/11:00am 21.3 19.9 13.4 60 4.5 SE 13 19 7 10 1030.2 - 0.0
25/10:30am 21.1 20.1 13.4 61 4.4 SSE 11 20 6 11 1030.7 - 0.0
25/10:00am 20.3 18.9 13.4 64 3.9 S 13 19 7 10 1030.8 - 0.0
25/09:30am 19.7 18.1 12.9 65 3.8 S 13 19 7 10 1030.9 - 0.0
25/09:00am 18.5 16.8 12.3 67 3.4 S 13 19 7 10 1030.8 1030.7 0.0
25/08:30am 17.4 15.6 12.1 71 2.9 SSW 13 17 7 9 1030.4 - 0.0
25/08:00am 16.0 13.7 11.9 76 2.2 SSW 15 20 8 11 1030.0 - 0.0
25/07:30am 14.7 12.9 12.1 84 1.4 SSW 13 17 7 9 1030.0 - 0.0
25/07:00am 14.0 11.6 11.3 84 1.4 SSW 15 17 8 9 1030.1 - 0.0
25/06:30am 14.1 11.7 11.5 84 1.4 SSW 15 19 8 10 1030.0 - 0.0
25/06:00am 13.6 11.2 11.3 86 1.2 SSW 15 19 8 10 1030.0 1029.9 0.0
25/05:30am 13.9 11.1 11.2 84 1.4 SSW 17 19 9 10 1029.6 - 0.0
25/05:00am 13.7 11.2 11.2 85 1.3 SSW 15 19 8 10 1029.5 - 0.0
25/04:30am 13.0 10.5 10.9 87 1.1 SSW 15 17 8 9 1029.4 - 0.0
25/04:00am 13.0 10.9 11.1 88 1.0 SSW 13 15 7 8 1029.3 - 0.0
25/03:30am 13.3 11.2 11.2 87 1.1 SSW 13 17 7 9 1029.3 - 0.0
25/03:00am 13.3 10.8 11.2 87 1.1 SSW 15 17 8 9 1029.5 1029.4 0.0
25/02:30am 13.5 11.4 11.2 86 1.2 SSW 13 17 7 9 1029.4 - 0.0
25/02:00am 13.7 11.6 11.2 85 1.3 SSW 13 17 7 9 1029.2 - 0.0
25/01:30am 14.6 12.6 11.4 81 1.7 SSW 13 17 7 9 1029.3 - 0.0
25/01:00am 15.7 13.6 11.2 74 2.4 S 13 17 7 9 1029.1 - 0.0
25/12:30am 15.6 13.5 11.1 74 2.4 SSW 13 15 7 8 1029.4 - 0.0
25/12:00am 14.1 11.7 11.3 83 1.5 SSW 15 17 8 9 1029.5 1029.4 0.0
 
Date/Time
EST
Tmp

°C
App
Tmp
°C
Dew
Point
°C
Rel
Hum
%
Delta-T

°C
Wind Press
QNH
hPa
Press
MSL
hPa
Rain
since
9 am
mm
Dir
 
Spd
km/h
Gust
km/h
Spd
kts
Gust
kts
24/11:30pm 14.2 12.6 11.4 83 1.5 SSW 11 15 6 8 1029.5 - 0.0
24/11:00pm 14.8 12.7 11.2 79 1.9 SSW 13 17 7 9 1030.0 - 0.0
24/10:30pm 16.7 14.6 11.1 69 3.0 SSW 13 19 7 10 1030.1 - 0.0
24/10:00pm 17.0 14.9 11.0 68 3.2 SSW 13 17 7 9 1030.2 - 0.0
24/09:30pm 16.8 14.7 11.0 68 3.1 S 13 15 7 8 1029.9 - 0.0
24/09:00pm 17.3 15.5 10.9 66 3.4 S 11 17 6 9 1029.7 1029.6 0.0
24/08:30pm 17.8 15.7 11.3 65 3.5 S 13 22 7 12 1029.8 - 0.0
24/08:00pm 18.4 15.9 11.2 63 3.9 S 15 26 8 14 1029.6 - 0.0
24/07:30pm 19.3 17.3 11.4 60 4.3 SSE 13 22 7 12 1029.3 - 0.0
24/07:00pm 19.5 17.5 11.4 59 4.4 SE 13 22 7 12 1029.0 - 0.0
24/06:30pm 19.5 18.1 12.1 62 4.1 SSE 11 17 6 9 1028.9 - 0.0
24/06:00pm 19.5 17.6 11.9 61 4.2 SSE 13 19 7 10 1028.7 1028.6 0.0
24/05:30pm 19.5 16.6 12.3 63 4.0 SE 19 32 10 17 1028.6 - 0.0
24/05:00pm 19.9 17.0 11.1 57 4.8 SE 17 30 9 16 1028.1 - 0.0
24/04:30pm 20.6 18.5 11.1 54 5.2 SE 13 22 7 12 1027.6 - 0.0
24/04:00pm 21.0 18.1 10.9 52 5.5 SE 17 26 9 14 1027.5 - 0.0
24/03:30pm 21.2 18.4 11.2 53 5.5 SE 17 30 9 16 1027.0 - 0.0
24/03:00pm 21.5 18.3 11.1 51 5.7 SE 19 30 10 16 1026.8 1026.7 0.0
24/02:30pm 22.0 18.6 11.3 50 5.9 SE 20 32 11 17 1026.8 - 0.0

Latest Capital City Observations: Canberra | Sydney | Melbourne | Brisbane | Adelaide | Perth | Hobart | Darwin

Other Formats:

Comma delimited format used in spreadsheet applications
http://www.bom.gov.au/fwo/IDQ60901/IDQ60901.94578.axf

JavaScript Object Notation format (JSON) in row-major order
http://www.bom.gov.au/fwo/IDQ60901/IDQ60901.94578.json